Forest Lake, Michigan
Current Conditions -  °F | °C
As of 10:53 AM on Sunday 23 Nov 2014 (Local Time) from KISQ Reporting Station
Moderate Fog Moderate Fog  
Wind Chill: 35°   Ceiling: 200
Heat Index: 40°   Visibility: 0mi
Dew Point: 40°   Wind: 8mph
Humidity: 100%   Direction: 200°SSW
Pressure: 29.65"   Gusts: NA
Location:  46.4479°N, 86.4779°W
Report Text: KISQ 231553Z AUTO 20007KT 130V220 M1/4SM FG OVC002 05/05 A2965 RMK AO2 T00460046
Loading
Personal Weather Stations






























Interactive Weather Map New forecast layout! Learn more

10-Day Weather Forecast

Advertisements
Track Severe Weather on mobile